首页
METAR-TAF:

METAR-TAF

机场 :

海得拉巴, 印度

纬度: 17-27N, 经度: 078-28E, 海拔: 530米

当前天气观测

该预报发布于7小时和42分钟前的16:30 UTC
风速4节,风向南转西南
温度 29°C
湿度 66%
气压 1009 hPa
能見度: 6000
少量云层高于1500英尺
多云层高于10000英尺

METAR: VOHY 161630Z 21004KT 6000 FEW015 BKN100 29/22 Q1009 NOSIG

时间: 05:42 (00:12 UTC)

预报

该预报发布于1小时和12分钟前的23:00 UTC
预报有效从17日的 00点(UTC)到 17日的 09点(UTC)
风速10节,风向西
能見度: 5000
散云层高于1500英尺
多云层高于8000英尺
短暂存在
从 17日的 00点(UTC)到 17日的 03点(UTC)
风速10节,风向西
能見度: 3000
散云层高于1000英尺
多云层高于8000英尺
毛毛雨, 轻雾
成为
从 17日的 04点(UTC)到 17日的 06点(UTC)
风速10节,风向西
能見度: 6000
散云层高于1500英尺
多云层高于8000英尺

TAF: VOHY 162300Z 1700/1709 28010KT 5000 HZ SCT015 BKN080 TEMPO 1700/1703 28010KT 3000 DZ BR SCT010 BKN080 BECMG 1704/1706 26010KT 6000 SCT015 BKN080

超过4000个机场的气象观测和天气预报(METAR&TAF报告)。

可查询的气象台以黄色和红色小点在地图上表示。

将鼠标移到小点上方,可查看气象台名称。

然后点击查看天气观测和预报。

如需切换地图:点击带黑十字的绿色按钮放大地图;点击带横线的绿色按钮缩小地图;或者点击绿色箭头查看邻近地区的地图。


METAR-TAF: